sensor_id;sensor_type;location;lat;lon;timestamp;pressure;altitude;pressure_sealevel;temperature;humidity
71384;BME280;61466;52.166;5.004;2022-12-07T00:01:55;101959.00;;;6.37;73.92
71384;BME280;61466;52.166;5.004;2022-12-07T00:04:21;101955.53;;;6.30;74.25
71384;BME280;61466;52.166;5.004;2022-12-07T00:06:51;101960.66;;;6.31;74.30
71384;BME280;61466;52.166;5.004;2022-12-07T00:09:17;101958.81;;;6.32;74.17
71384;BME280;61466;52.166;5.004;2022-12-07T00:11:43;101954.72;;;6.29;74.15
71384;BME280;61466;52.166;5.004;2022-12-07T00:14:14;101960.25;;;6.28;74.47
71384;BME280;61466;52.166;5.004;2022-12-07T00:16:40;101965.56;;;6.28;74.55
71384;BME280;61466;52.166;5.004;2022-12-07T00:19:06;101955.78;;;6.22;74.60
71384;BME280;61466;52.166;5.004;2022-12-07T00:21:34;101945.97;;;6.22;74.72
71384;BME280;61466;52.166;5.004;2022-12-07T00:24:00;101953.72;;;6.24;74.30
71384;BME280;61466;52.166;5.004;2022-12-07T00:26:28;101955.78;;;6.22;74.32
71384;BME280;61466;52.166;5.004;2022-12-07T00:28:56;101938.97;;;6.34;74.19
71384;BME280;61466;52.166;5.004;2022-12-07T00:31:25;101933.44;;;6.43;73.64
71384;BME280;61466;52.166;5.004;2022-12-07T00:33:51;101930.56;;;6.44;73.20
71384;BME280;61466;52.166;5.004;2022-12-07T00:36:21;101930.13;;;6.47;73.54
71384;BME280;61466;52.166;5.004;2022-12-07T00:38:47;101928.34;;;6.41;73.02
71384;BME280;61466;52.166;5.004;2022-12-07T00:41:15;101924.84;;;6.41;72.90
71384;BME280;61466;52.166;5.004;2022-12-07T00:43:42;101930.38;;;6.39;73.25
71384;BME280;61466;52.166;5.004;2022-12-07T00:46:08;101935.28;;;6.35;73.37
71384;BME280;61466;52.166;5.004;2022-12-07T00:48:33;101935.31;;;6.29;73.20
71384;BME280;61466;52.166;5.004;2022-12-07T00:50:59;101934.09;;;6.25;73.32
71384;BME280;61466;52.166;5.004;2022-12-07T00:53:24;101939.63;;;6.23;73.03
71384;BME280;61466;52.166;5.004;2022-12-07T00:55:50;101941.66;;;6.21;73.41
71384;BME280;61466;52.166;5.004;2022-12-07T00:58:17;101933.72;;;6.14;73.18
71384;BME280;61466;52.166;5.004;2022-12-07T01:00:43;101933.91;;;6.13;73.13
71384;BME280;61466;52.166;5.004;2022-12-07T01:03:11;101935.16;;;6.10;73.02
71384;BME280;61466;52.166;5.004;2022-12-07T01:05:37;101938.03;;;6.09;72.92
71384;BME280;61466;52.166;5.004;2022-12-07T01:08:03;101929.03;;;6.03;72.97
71384;BME280;61466;52.166;5.004;2022-12-07T01:10:29;101925.16;;;5.99;73.02
71384;BME280;61466;52.166;5.004;2022-12-07T01:12:56;101925.16;;;5.92;73.18
71384;BME280;61466;52.166;5.004;2022-12-07T01:15:21;101921.06;;;5.90;72.96
71384;BME280;61466;52.166;5.004;2022-12-07T01:17:46;101932.69;;;5.89;73.16
71384;BME280;61466;52.166;5.004;2022-12-07T01:20:12;101934.56;;;5.95;72.95
71384;BME280;61466;52.166;5.004;2022-12-07T01:22:41;101923.13;;;5.88;72.85
71384;BME280;61466;52.166;5.004;2022-12-07T01:25:08;101935.34;;;5.89;73.20
71384;BME280;61466;52.166;5.004;2022-12-07T01:27:34;101940.66;;;5.89;73.13
71384;BME280;61466;52.166;5.004;2022-12-07T01:30:00;101932.69;;;5.89;73.24
71384;BME280;61466;52.166;5.004;2022-12-07T01:32:26;101926.38;;;5.90;73.52
71384;BME280;61466;52.166;5.004;2022-12-07T01:34:51;101928.00;;;5.91;73.11
71384;BME280;61466;52.166;5.004;2022-12-07T01:37:16;101934.72;;;5.93;72.97
71384;BME280;61466;52.166;5.004;2022-12-07T01:39:42;101932.50;;;5.90;73.23
71384;BME280;61466;52.166;5.004;2022-12-07T01:42:11;101937.00;;;5.90;72.89
71384;BME280;61466;52.166;5.004;2022-12-07T01:45:25;101932.09;;;5.87;72.84
71384;BME280;61466;52.166;5.004;2022-12-07T01:47:57;101929.66;;;5.85;72.83
71384;BME280;61466;52.166;5.004;2022-12-07T01:50:26;101943.94;;;5.84;72.83
71384;BME280;61466;52.166;5.004;2022-12-07T01:52:54;101957.44;;;5.89;73.10
71384;BME280;61466;52.166;5.004;2022-12-07T01:55:20;101949.25;;;5.91;72.73
71384;BME280;61466;52.166;5.004;2022-12-07T01:57:49;101957.22;;;5.91;72.61
71384;BME280;61466;52.166;5.004;2022-12-07T02:00:15;101943.75;;;5.92;72.99
71384;BME280;61466;52.166;5.004;2022-12-07T02:05:12;101935.59;;;6.01;72.90
71384;BME280;61466;52.166;5.004;2022-12-07T02:07:38;101928.84;;;6.05;72.69
71384;BME280;61466;52.166;5.004;2022-12-07T02:10:24;101926.38;;;6.10;72.99
71384;BME280;61466;52.166;5.004;2022-12-07T02:12:57;101913.28;;;6.08;72.81
71384;BME280;61466;52.166;5.004;2022-12-07T02:15:32;101921.47;;;6.13;73.04
71384;BME280;61466;52.166;5.004;2022-12-07T02:18:09;101893.28;;;6.06;72.82
71384;BME280;61466;52.166;5.004;2022-12-07T02:21:11;101917.97;;;6.20;72.86
71384;BME280;61466;52.166;5.004;2022-12-07T02:27:24;101920.41;;;6.21;72.78
71384;BME280;61466;52.166;5.004;2022-12-07T02:35:19;101911.22;;;6.17;72.78
71384;BME280;61466;52.166;5.004;2022-12-07T02:40:20;101903.06;;;6.12;72.61
71384;BME280;61466;52.166;5.004;2022-12-07T02:42:50;101904.31;;;6.09;72.83
71384;BME280;61466;52.166;5.004;2022-12-07T02:45:18;101916.56;;;6.10;72.60
71384;BME280;61466;52.166;5.004;2022-12-07T02:47:49;101905.75;;;6.05;72.95
71384;BME280;61466;52.166;5.004;2022-12-07T02:50:19;101901.47;;;5.98;72.58
71384;BME280;61466;52.166;5.004;2022-12-07T02:52:45;101906.34;;;5.94;72.47
71384;BME280;61466;52.166;5.004;2022-12-07T02:55:11;101918.63;;;5.88;72.28
71384;BME280;61466;52.166;5.004;2022-12-07T03:00:18;101917.81;;;5.81;72.81
71384;BME280;61466;52.166;5.004;2022-12-07T03:03:08;101916.97;;;5.74;72.71
71384;BME280;61466;52.166;5.004;2022-12-07T03:05:51;101914.56;;;5.72;72.38
71384;BME280;61466;52.166;5.004;2022-12-07T03:08:37;101910.44;;;5.63;72.63
71384;BME280;61466;52.166;5.004;2022-12-07T03:11:10;101914.97;;;5.56;72.40
71384;BME280;61466;52.166;5.004;2022-12-07T03:16:14;101918.44;;;5.50;72.66
71384;BME280;61466;52.166;5.004;2022-12-07T03:19:02;101912.94;;;5.45;72.29
71384;BME280;61466;52.166;5.004;2022-12-07T03:21:34;101905.56;;;5.40;72.70
71384;BME280;61466;52.166;5.004;2022-12-07T03:24:08;101893.72;;;5.36;72.40
71384;BME280;61466;52.166;5.004;2022-12-07T03:26:36;101909.22;;;5.39;72.76
71384;BME280;61466;52.166;5.004;2022-12-07T03:29:14;101904.13;;;5.31;72.73
71384;BME280;61466;52.166;5.004;2022-12-07T03:31:46;101889.25;;;5.30;72.65
71384;BME280;61466;52.166;5.004;2022-12-07T03:34:19;101894.75;;;5.35;72.80
71384;BME280;61466;52.166;5.004;2022-12-07T03:36:47;101897.38;;;5.35;72.30
71384;BME280;61466;52.166;5.004;2022-12-07T03:39:40;101895.56;;;5.29;72.27
71384;BME280;61466;52.166;5.004;2022-12-07T03:42:08;101898.44;;;5.27;72.19
71384;BME280;61466;52.166;5.004;2022-12-07T03:44:36;101901.47;;;5.24;72.47
71384;BME280;61466;52.166;5.004;2022-12-07T03:47:26;101902.50;;;5.23;72.59
71384;BME280;61466;52.166;5.004;2022-12-07T03:50:28;101898.63;;;5.19;72.63
71384;BME280;61466;52.166;5.004;2022-12-07T03:52:55;101901.88;;;5.21;72.79
71384;BME280;61466;52.166;5.004;2022-12-07T03:55:32;101905.53;;;5.20;72.40
71384;BME280;61466;52.166;5.004;2022-12-07T03:58:02;101905.97;;;5.17;72.39
71384;BME280;61466;52.166;5.004;2022-12-07T04:00:29;101890.84;;;5.18;72.79
71384;BME280;61466;52.166;5.004;2022-12-07T04:02:55;101896.97;;;5.18;72.82
71384;BME280;61466;52.166;5.004;2022-12-07T04:05:20;101899.44;;;5.20;72.54
71384;BME280;61466;52.166;5.004;2022-12-07T04:07:46;101898.00;;;5.17;72.28
71384;BME280;61466;52.166;5.004;2022-12-07T04:10:11;101891.66;;;5.11;72.29
71384;BME280;61466;52.166;5.004;2022-12-07T04:12:37;101896.75;;;5.13;72.38
71384;BME280;61466;52.166;5.004;2022-12-07T04:15:03;101905.75;;;5.12;72.41
71384;BME280;61466;52.166;5.004;2022-12-07T04:17:28;101899.84;;;5.10;72.19
71384;BME280;61466;52.166;5.004;2022-12-07T04:19:54;101896.94;;;5.05;72.31
71384;BME280;61466;52.166;5.004;2022-12-07T04:22:19;101888.59;;;5.01;72.35
71384;BME280;61466;52.166;5.004;2022-12-07T04:24:45;101886.16;;;5.00;72.56
71384;BME280;61466;52.166;5.004;2022-12-07T04:27:10;101888.19;;;4.98;72.46
71384;BME280;61466;52.166;5.004;2022-12-07T04:29:35;101885.53;;;4.98;72.45
71384;BME280;61466;52.166;5.004;2022-12-07T04:32:01;101885.91;;;4.95;72.58
71384;BME280;61466;52.166;5.004;2022-12-07T04:34:26;101873.25;;;4.83;72.50
71384;BME280;61466;52.166;5.004;2022-12-07T04:36:51;101891.22;;;4.95;72.73
71384;BME280;61466;52.166;5.004;2022-12-07T04:39:22;101885.94;;;5.01;72.70
71384;BME280;61466;52.166;5.004;2022-12-07T04:41:48;101876.75;;;4.97;72.58
71384;BME280;61466;52.166;5.004;2022-12-07T04:44:14;101891.66;;;5.05;72.77
71384;BME280;61466;52.166;5.004;2022-12-07T04:46:40;101876.53;;;5.05;72.84
71384;BME280;61466;52.166;5.004;2022-12-07T04:49:06;101881.28;;;5.10;72.49
71384;BME280;61466;52.166;5.004;2022-12-07T04:51:31;101881.66;;;5.13;72.61
71384;BME280;61466;52.166;5.004;2022-12-07T04:53:57;101872.91;;;5.13;72.38
71384;BME280;61466;52.166;5.004;2022-12-07T04:56:23;101860.25;;;5.15;72.53
71384;BME280;61466;52.166;5.004;2022-12-07T04:58:51;101860.66;;;5.12;72.35
71384;BME280;61466;52.166;5.004;2022-12-07T05:01:17;101867.78;;;5.18;72.38
71384;BME280;61466;52.166;5.004;2022-12-07T05:03:43;101862.28;;;5.13;72.63
71384;BME280;61466;52.166;5.004;2022-12-07T05:06:09;101870.06;;;5.15;72.69
71384;BME280;61466;52.166;5.004;2022-12-07T05:08:35;101869.63;;;5.18;72.71
71384;BME280;61466;52.166;5.004;2022-12-07T05:11:02;101865.97;;;5.19;72.44
71384;BME280;61466;52.166;5.004;2022-12-07T05:13:28;101867.19;;;5.23;72.56
71384;BME280;61466;52.166;5.004;2022-12-07T05:15:53;101867.41;;;5.21;72.28
71384;BME280;61466;52.166;5.004;2022-12-07T05:18:18;101866.78;;;5.19;72.56
71384;BME280;61466;52.166;5.004;2022-12-07T05:20:44;101873.72;;;5.13;72.22
71384;BME280;61466;52.166;5.004;2022-12-07T05:23:10;101852.47;;;5.00;72.65
71384;BME280;61466;52.166;5.004;2022-12-07T05:25:36;101876.34;;;5.13;72.46
71384;BME280;61466;52.166;5.004;2022-12-07T05:28:01;101869.22;;;5.07;72.71
71384;BME280;61466;52.166;5.004;2022-12-07T05:30:28;101878.19;;;5.13;72.45
71384;BME280;61466;52.166;5.004;2022-12-07T05:32:54;101881.88;;;5.12;72.49
71384;BME280;61466;52.166;5.004;2022-12-07T05:35:19;101875.53;;;5.13;72.63
71384;BME280;61466;52.166;5.004;2022-12-07T05:37:45;101875.97;;;5.17;72.91
71384;BME280;61466;52.166;5.004;2022-12-07T05:40:12;101874.13;;;5.17;72.92
71384;BME280;61466;52.166;5.004;2022-12-07T05:42:38;101852.06;;;5.03;73.03
71384;BME280;61466;52.166;5.004;2022-12-07T05:45:04;101865.56;;;5.22;72.91
71384;BME280;61466;52.166;5.004;2022-12-07T05:47:29;101858.41;;;5.22;73.05
71384;BME280;61466;52.166;5.004;2022-12-07T05:49:55;101867.59;;;5.26;72.85
71384;BME280;61466;52.166;5.004;2022-12-07T05:52:20;101868.22;;;5.28;73.00
71384;BME280;61466;52.166;5.004;2022-12-07T05:54:46;101861.91;;;5.29;72.62
71384;BME280;61466;52.166;5.004;2022-12-07T05:57:11;101871.47;;;5.30;72.72
71384;BME280;61466;52.166;5.004;2022-12-07T05:59:36;101868.44;;;5.33;72.84
71384;BME280;61466;52.166;5.004;2022-12-07T06:02:03;101872.91;;;5.33;72.61
71384;BME280;61466;52.166;5.004;2022-12-07T06:04:32;101869.44;;;5.32;72.59
71384;BME280;61466;52.166;5.004;2022-12-07T06:06:58;101865.56;;;5.28;72.30
71384;BME280;61466;52.166;5.004;2022-12-07T06:09:25;101869.25;;;5.34;72.52
71384;BME280;61466;52.166;5.004;2022-12-07T06:11:51;101867.19;;;5.36;72.60
71384;BME280;61466;52.166;5.004;2022-12-07T06:14:35;101865.34;;;5.37;72.59
71384;BME280;61466;52.166;5.004;2022-12-07T06:17:01;101865.34;;;5.43;72.44
71384;BME280;61466;52.166;5.004;2022-12-07T06:19:26;101864.75;;;5.41;72.64
71384;BME280;61466;52.166;5.004;2022-12-07T06:21:52;101863.50;;;5.44;72.28
71384;BME280;61466;52.166;5.004;2022-12-07T06:24:18;101862.31;;;5.46;72.69
71384;BME280;61466;52.166;5.004;2022-12-07T06:26:44;101860.25;;;5.55;72.60
71384;BME280;61466;52.166;5.004;2022-12-07T06:29:10;101862.69;;;5.57;72.58
71384;BME280;61466;52.166;5.004;2022-12-07T06:31:36;101859.84;;;5.58;72.20
71384;BME280;61466;52.166;5.004;2022-12-07T06:34:04;101860.25;;;5.62;72.34
71384;BME280;61466;52.166;5.004;2022-12-07T06:36:30;101869.22;;;5.67;72.41
71384;BME280;61466;52.166;5.004;2022-12-07T06:38:56;101870.03;;;5.68;72.46
71384;BME280;61466;52.166;5.004;2022-12-07T06:41:22;101863.69;;;5.69;72.23
71384;BME280;61466;52.166;5.004;2022-12-07T06:43:47;101864.31;;;5.71;71.88
71384;BME280;61466;52.166;5.004;2022-12-07T06:46:13;101866.78;;;5.66;71.96
71384;BME280;61466;52.166;5.004;2022-12-07T06:48:40;101869.00;;;5.69;72.35
71384;BME280;61466;52.166;5.004;2022-12-07T06:51:05;101882.47;;;5.67;72.07
71384;BME280;61466;52.166;5.004;2022-12-07T06:53:30;101883.50;;;5.66;72.30
71384;BME280;61466;52.166;5.004;2022-12-07T06:55:56;101888.41;;;5.63;72.34
71384;BME280;61466;52.166;5.004;2022-12-07T06:58:21;101867.19;;;5.56;72.65
71384;BME280;61466;52.166;5.004;2022-12-07T07:00:48;101853.72;;;5.51;72.18
71384;BME280;61466;52.166;5.004;2022-12-07T07:03:14;101877.19;;;5.61;72.41
71384;BME280;61466;52.166;5.004;2022-12-07T07:05:40;101877.38;;;5.59;72.14
71384;BME280;61466;52.166;5.004;2022-12-07T07:08:05;101872.06;;;5.59;72.26
71384;BME280;61466;52.166;5.004;2022-12-07T07:10:30;101873.53;;;5.62;72.14
71384;BME280;61466;52.166;5.004;2022-12-07T07:12:56;101871.69;;;5.62;72.25
71384;BME280;61466;52.166;5.004;2022-12-07T07:15:21;101865.13;;;5.58;72.03
71384;BME280;61466;52.166;5.004;2022-12-07T07:17:46;101867.59;;;5.53;71.96
71384;BME280;61466;52.166;5.004;2022-12-07T07:20:13;101873.72;;;5.53;72.02
71384;BME280;61466;52.166;5.004;2022-12-07T07:22:39;101866.38;;;5.49;71.97
71384;BME280;61466;52.166;5.004;2022-12-07T07:25:04;101868.44;;;5.47;72.01
71384;BME280;61466;52.166;5.004;2022-12-07T07:27:29;101865.53;;;5.42;71.86
71384;BME280;61466;52.166;5.004;2022-12-07T07:29:55;101869.84;;;5.43;71.85
71384;BME280;61466;52.166;5.004;2022-12-07T07:32:20;101867.59;;;5.40;71.68
71384;BME280;61466;52.166;5.004;2022-12-07T07:34:47;101877.00;;;5.42;71.76
71384;BME280;61466;52.166;5.004;2022-12-07T07:37:12;101868.81;;;5.30;71.97
71384;BME280;61466;52.166;5.004;2022-12-07T07:39:38;101872.72;;;5.28;72.10
71384;BME280;61466;52.166;5.004;2022-12-07T07:42:04;101855.75;;;5.16;72.09
71384;BME280;61466;52.166;5.004;2022-12-07T07:44:30;101871.91;;;5.21;71.96
71384;BME280;61466;52.166;5.004;2022-12-07T07:46:55;101877.78;;;5.16;71.96
71384;BME280;61466;52.166;5.004;2022-12-07T07:49:20;101869.00;;;5.09;72.19
71384;BME280;61466;52.166;5.004;2022-12-07T07:51:46;101871.06;;;5.07;72.23
71384;BME280;61466;52.166;5.004;2022-12-07T07:54:11;101881.66;;;5.07;72.23
71384;BME280;61466;52.166;5.004;2022-12-07T07:56:36;101870.22;;;5.00;72.13
71384;BME280;61466;52.166;5.004;2022-12-07T07:59:02;101878.38;;;5.05;72.26
71384;BME280;61466;52.166;5.004;2022-12-07T08:01:27;101880.22;;;5.04;72.20
71384;BME280;61466;52.166;5.004;2022-12-07T08:03:53;101877.38;;;5.06;72.40
71384;BME280;61466;52.166;5.004;2022-12-07T08:06:18;101873.28;;;5.03;72.47
71384;BME280;61466;52.166;5.004;2022-12-07T08:08:43;101872.88;;;5.00;72.30
71384;BME280;61466;52.166;5.004;2022-12-07T08:11:09;101875.34;;;5.01;72.45
71384;BME280;61466;52.166;5.004;2022-12-07T08:13:35;101872.88;;;5.00;72.45
71384;BME280;61466;52.166;5.004;2022-12-07T08:16:09;101875.34;;;5.01;72.27
71384;BME280;61466;52.166;5.004;2022-12-07T08:18:36;101880.22;;;4.98;72.57
71384;BME280;61466;52.166;5.004;2022-12-07T08:21:03;101894.72;;;5.02;72.49
71384;BME280;61466;52.166;5.004;2022-12-07T08:23:29;101913.72;;;5.12;72.64
71384;BME280;61466;52.166;5.004;2022-12-07T08:25:55;101909.00;;;5.14;72.21
71384;BME280;61466;52.166;5.004;2022-12-07T08:28:20;101911.47;;;5.22;72.56
71384;BME280;61466;52.166;5.004;2022-12-07T08:30:46;101887.19;;;5.19;72.63
71384;BME280;61466;52.166;5.004;2022-12-07T08:33:11;101898.22;;;5.42;72.58
71384;BME280;61466;52.166;5.004;2022-12-07T08:35:36;101897.00;;;5.51;72.59
71384;BME280;61466;52.166;5.004;2022-12-07T08:38:02;101891.06;;;5.56;72.35
71384;BME280;61466;52.166;5.004;2022-12-07T08:40:29;101900.44;;;5.65;72.22
71384;BME280;61466;52.166;5.004;2022-12-07T08:42:54;101893.50;;;5.71;72.47
71384;BME280;61466;52.166;5.004;2022-12-07T08:45:21;101899.63;;;5.78;72.05
71384;BME280;61466;52.166;5.004;2022-12-07T08:48:03;101904.31;;;5.83;72.44
71384;BME280;61466;52.166;5.004;2022-12-07T08:50:32;101897.38;;;5.88;72.26
71384;BME280;61466;52.166;5.004;2022-12-07T08:52:58;101893.31;;;5.79;72.47
71384;BME280;61466;52.166;5.004;2022-12-07T08:55:24;101910.88;;;6.00;72.14
71384;BME280;61466;52.166;5.004;2022-12-07T08:57:50;101902.47;;;6.03;72.34
71384;BME280;61466;52.166;5.004;2022-12-07T09:00:16;101903.50;;;6.02;72.12
71384;BME280;61466;52.166;5.004;2022-12-07T09:02:47;101908.41;;;6.05;72.47
71384;BME280;61466;52.166;5.004;2022-12-07T09:05:12;101898.78;;;6.04;72.26
71384;BME280;61466;52.166;5.004;2022-12-07T09:07:41;101896.34;;;6.09;72.43
71384;BME280;61466;52.166;5.004;2022-12-07T09:10:10;101876.69;;;6.10;72.66
71384;BME280;61466;52.166;5.004;2022-12-07T09:12:35;101890.34;;;6.27;72.22
71384;BME280;61466;52.166;5.004;2022-12-07T09:15:01;101884.41;;;6.32;72.26
71384;BME280;61466;52.166;5.004;2022-12-07T09:17:26;101879.06;;;6.39;72.52
71384;BME280;61466;52.166;5.004;2022-12-07T09:19:52;101875.19;;;6.41;72.56
71384;BME280;61466;52.166;5.004;2022-12-07T09:22:18;101871.72;;;6.34;72.68
71384;BME280;61466;52.166;5.004;2022-12-07T09:24:50;101874.38;;;6.34;72.61
71384;BME280;61466;52.166;5.004;2022-12-07T09:27:16;101896.78;;;6.51;72.49
71384;BME280;61466;52.166;5.004;2022-12-07T09:29:43;101883.72;;;6.50;72.39
71384;BME280;61466;52.166;5.004;2022-12-07T09:32:29;101899.81;;;6.62;72.29
71384;BME280;61466;52.166;5.004;2022-12-07T09:34:54;101885.88;;;6.66;72.49
71384;BME280;61466;52.166;5.004;2022-12-07T09:37:20;101899.13;;;6.73;72.16
71384;BME280;61466;52.166;5.004;2022-12-07T09:39:45;101891.16;;;6.73;72.13
71384;BME280;61466;52.166;5.004;2022-12-07T09:42:25;101887.28;;;6.75;71.93
71384;BME280;61466;52.166;5.004;2022-12-07T09:44:51;101892.16;;;6.79;72.08
71384;BME280;61466;52.166;5.004;2022-12-07T09:47:16;101876.22;;;6.79;71.52
71384;BME280;61466;52.166;5.004;2022-12-07T09:49:42;101882.13;;;6.81;71.65
71384;BME280;61466;52.166;5.004;2022-12-07T09:54:35;101876.00;;;6.80;71.49
71384;BME280;61466;52.166;5.004;2022-12-07T09:57:01;101875.16;;;6.86;71.69
71384;BME280;61466;52.166;5.004;2022-12-07T09:59:27;101863.34;;;6.75;71.95
71384;BME280;61466;52.166;5.004;2022-12-07T10:01:55;101878.38;;;6.95;71.89
71384;BME280;61466;52.166;5.004;2022-12-07T10:04:25;101875.47;;;6.96;71.39
71384;BME280;61466;52.166;5.004;2022-12-07T10:06:51;101864.22;;;6.94;71.58
71384;BME280;61466;52.166;5.004;2022-12-07T10:09:19;101873.00;;;7.02;71.32
71384;BME280;61466;52.166;5.004;2022-12-07T10:14:27;101847.84;;;6.97;71.29
71384;BME280;61466;52.166;5.004;2022-12-07T10:16:54;101855.41;;;7.01;71.37
71384;BME280;61466;52.166;5.004;2022-12-07T10:19:27;101862.97;;;7.04;71.13
71384;BME280;61466;52.166;5.004;2022-12-07T10:22:16;101854.16;;;7.03;71.31
71384;BME280;61466;52.166;5.004;2022-12-07T10:24:43;101853.34;;;7.03;71.78
71384;BME280;61466;52.166;5.004;2022-12-07T10:27:31;101836.81;;;6.94;72.08
71384;BME280;61466;52.166;5.004;2022-12-07T10:29:58;101841.63;;;7.10;71.92
71384;BME280;61466;52.166;5.004;2022-12-07T10:32:34;101846.09;;;7.16;71.77
71384;BME280;61466;52.166;5.004;2022-12-07T10:37:46;101848.25;;;7.26;71.28
71384;BME280;61466;52.166;5.004;2022-12-07T10:48:34;101847.97;;;7.34;71.32
71384;BME280;61466;52.166;5.004;2022-12-07T10:54:17;101849.19;;;7.38;71.22
71384;BME280;61466;52.166;5.004;2022-12-07T10:56:58;101842.81;;;7.39;70.80
71384;BME280;61466;52.166;5.004;2022-12-07T11:05:06;101832.34;;;7.45;70.98
71384;BME280;61466;52.166;5.004;2022-12-07T11:07:56;101824.34;;;7.45;71.15
71384;BME280;61466;52.166;5.004;2022-12-07T11:13:25;101825.31;;;7.50;70.94
71384;BME280;61466;52.166;5.004;2022-12-07T11:18:33;101816.66;;;7.55;70.95
71384;BME280;61466;52.166;5.004;2022-12-07T11:21:24;101811.78;;;7.52;71.22
71384;BME280;61466;52.166;5.004;2022-12-07T11:27:01;101812.50;;;7.59;70.89
71384;BME280;61466;52.166;5.004;2022-12-07T11:29:44;101799.00;;;7.61;71.17
71384;BME280;61466;52.166;5.004;2022-12-07T11:34:59;101801.22;;;7.64;70.62
71384;BME280;61466;52.166;5.004;2022-12-07T11:37:32;101788.13;;;7.62;70.86
71384;BME280;61466;52.166;5.004;2022-12-07T11:42:38;101783.28;;;7.52;70.46
71384;BME280;61466;52.166;5.004;2022-12-07T11:47:40;101775.75;;;7.49;70.82
71384;BME280;61466;52.166;5.004;2022-12-07T11:50:32;101779.91;;;7.45;70.67
71384;BME280;61466;52.166;5.004;2022-12-07T11:53:05;101756.28;;;7.30;70.72
71384;BME280;61466;52.166;5.004;2022-12-07T12:03:45;101754.16;;;7.39;70.92
71384;BME280;61466;52.166;5.004;2022-12-07T12:06:11;101745.56;;;7.37;70.82
71384;BME280;61466;52.166;5.004;2022-12-07T12:08:42;101752.47;;;7.45;70.75
71384;BME280;61466;52.166;5.004;2022-12-07T12:19:07;101742.41;;;7.65;70.51
71384;BME280;61466;52.166;5.004;2022-12-07T12:21:41;101747.28;;;7.68;70.18
71384;BME280;61466;52.166;5.004;2022-12-07T12:24:22;101747.28;;;7.68;70.48
71384;BME280;61466;52.166;5.004;2022-12-07T12:26:51;101747.28;;;7.68;70.44
71384;BME280;61466;52.166;5.004;2022-12-07T12:29:44;101749.38;;;7.66;70.41
71384;BME280;61466;52.166;5.004;2022-12-07T12:32:21;101743.88;;;7.61;70.44
71384;BME280;61466;52.166;5.004;2022-12-07T12:42:44;101741.22;;;7.61;70.56
71384;BME280;61466;52.166;5.004;2022-12-07T12:48:02;101731.44;;;7.55;70.12
71384;BME280;61466;52.166;5.004;2022-12-07T12:50:33;101719.63;;;7.51;70.52
71384;BME280;61466;52.166;5.004;2022-12-07T12:53:14;101719.25;;;7.47;70.40
71384;BME280;61466;52.166;5.004;2022-12-07T13:00:47;101718.38;;;7.53;70.12
71384;BME280;61466;52.166;5.004;2022-12-07T13:03:32;101712.66;;;7.50;69.90
71384;BME280;61466;52.166;5.004;2022-12-07T13:08:45;101694.72;;;7.45;69.92
71384;BME280;61466;52.166;5.004;2022-12-07T13:11:29;101704.25;;;7.53;70.48
71384;BME280;61466;52.166;5.004;2022-12-07T13:16:59;101688.84;;;7.55;69.99
71384;BME280;61466;52.166;5.004;2022-12-07T13:25:17;101705.56;;;7.62;69.73
71384;BME280;61466;52.166;5.004;2022-12-07T13:27:51;101702.69;;;7.64;69.88
71384;BME280;61466;52.166;5.004;2022-12-07T13:30:20;101714.38;;;7.63;69.17
71384;BME280;61466;52.166;5.004;2022-12-07T13:32:58;101695.44;;;7.52;68.73
71384;BME280;61466;52.166;5.004;2022-12-07T13:35:34;101682.38;;;7.51;69.20
71384;BME280;61466;52.166;5.004;2022-12-07T13:38:19;101670.53;;;7.47;69.11
71384;BME280;61466;52.166;5.004;2022-12-07T13:41:13;101679.91;;;7.49;69.14
71384;BME280;61466;52.166;5.004;2022-12-07T13:43:49;101659.50;;;7.43;69.17
71384;BME280;61466;52.166;5.004;2022-12-07T13:46:15;101672.16;;;7.48;69.15
71384;BME280;61466;52.166;5.004;2022-12-07T13:48:49;101658.47;;;7.44;69.44
71384;BME280;61466;52.166;5.004;2022-12-07T13:54:00;101660.78;;;7.41;69.53
71384;BME280;61466;52.166;5.004;2022-12-07T13:56:32;101661.72;;;7.46;69.74
71384;BME280;61466;52.166;5.004;2022-12-07T13:58:59;101666.81;;;7.48;69.91
71384;BME280;61466;52.166;5.004;2022-12-07T14:01:24;101656.63;;;7.45;69.54
71384;BME280;61466;52.166;5.004;2022-12-07T14:03:50;101626.47;;;7.32;69.51
71384;BME280;61466;52.166;5.004;2022-12-07T14:06:24;101654.91;;;7.50;69.43
71384;BME280;61466;52.166;5.004;2022-12-07T14:09:07;101656.75;;;7.50;69.51
71384;BME280;61466;52.166;5.004;2022-12-07T14:11:32;101648.78;;;7.50;69.76
71384;BME280;61466;52.166;5.004;2022-12-07T14:14:00;101645.09;;;7.51;69.33
71384;BME280;61466;52.166;5.004;2022-12-07T14:16:31;101643.81;;;7.53;69.18
71384;BME280;61466;52.166;5.004;2022-12-07T14:18:59;101635.84;;;7.53;69.04
71384;BME280;61466;52.166;5.004;2022-12-07T14:21:27;101640.91;;;7.55;69.47
71384;BME280;61466;52.166;5.004;2022-12-07T14:24:18;101636.84;;;7.52;69.11
71384;BME280;61466;52.166;5.004;2022-12-07T14:26:48;101628.88;;;7.52;69.21
71384;BME280;61466;52.166;5.004;2022-12-07T14:31:45;101628.66;;;7.54;69.21
71384;BME280;61466;52.166;5.004;2022-12-07T14:34:13;101627.47;;;7.50;69.11
71384;BME280;61466;52.166;5.004;2022-12-07T14:36:39;101618.91;;;7.48;68.74
71384;BME280;61466;52.166;5.004;2022-12-07T14:39:04;101625.28;;;7.47;68.83
71384;BME280;61466;52.166;5.004;2022-12-07T14:41:29;101607.97;;;7.37;68.58
71384;BME280;61466;52.166;5.004;2022-12-07T14:44:13;101624.69;;;7.45;68.87
71384;BME280;61466;52.166;5.004;2022-12-07T14:46:39;101618.53;;;7.44;69.03
71384;BME280;61466;52.166;5.004;2022-12-07T14:49:04;101614.34;;;7.36;69.20
71384;BME280;61466;52.166;5.004;2022-12-07T14:51:30;101623.13;;;7.37;68.94
71384;BME280;61466;52.166;5.004;2022-12-07T14:53:56;101625.56;;;7.38;69.01
71384;BME280;61466;52.166;5.004;2022-12-07T14:56:21;101622.53;;;7.35;68.97
71384;BME280;61466;52.166;5.004;2022-12-07T14:58:46;101614.84;;;7.27;69.24
71384;BME280;61466;52.166;5.004;2022-12-07T15:01:13;101632.59;;;7.33;69.55